Terminal Aerodrome Forecast
Issued by NWS Milwaukee/Sullivan, WI

Home | Current Version | Previous Version | Text Only | Print | Product List | Glossary On
Versions: 1 2 3 4 5 6 7 8 9 10 11 12 13 14 15 16 17 18 19 20 21 22 23 24 25 26 27 28 29 30 31 32 33
000
FTUS43 KMKX 280520
TAFMSN
TAF
KMSN 280520Z 2806/0106 20003KT P6SM SKC
     FM281800 19007KT P6SM SCT200
     FM282300 17006KT P6SM BKN080
     FM010400 18005KT 3SM -SN OVC015=

USA.gov is the U.S. government's official web portal to all federal, state and local government web resources and services.